Time;durP1;ratioP1;P1;durP2;ratioP2;P2;SDS_P1;SDS_P2;PMS_P1;PMS_P2;Temp;Humidity;BMP_temperature;BMP_pressure;BME280_temperature;BME280_humidity;BME280_pressure;Samples;Min_cycle;Max_cycle;Signal;HPM_P1;HPM_P2
2022/11/25 00:01:27;;;;;;;2.90;1.00;;;6.20;99.90;;;;;;5114093;28;20424;-58
2022/11/25 00:03:56;;;;;;;3.25;1.10;;;6.30;99.90;;;;;;5114387;28;20811;-58
2022/11/25 00:06:25;;;;;;;2.70;1.00;;;6.30;99.90;;;;;;5117163;28;20430;-58
2022/11/25 00:08:54;;;;;;;3.60;1.20;;;6.30;99.90;;;;;;5117781;28;20439;-58
2022/11/25 00:11:21;;;;;;;3.00;1.10;;;6.30;99.90;;;;;;5118249;28;20723;-57
2022/11/25 00:13:48;;;;;;;2.50;1.30;;;6.30;99.90;;;;;;5119353;28;20866;-57
2022/11/25 00:16:17;;;;;;;1.83;0.93;;;6.30;99.90;;;;;;5118446;28;20435;-57
2022/11/25 00:18:47;;;;;;;3.25;1.10;;;6.30;99.90;;;;;;5117966;28;20519;-57
2022/11/25 00:21:15;;;;;;;2.88;1.00;;;6.30;99.90;;;;;;5117259;28;20912;-57
2022/11/25 00:23:42;;;;;;;3.60;1.05;;;6.20;99.90;;;;;;5118042;28;20765;-55
2022/11/25 00:26:11;;;;;;;2.10;0.90;;;6.00;99.90;;;;;;5118298;28;20529;-58
2022/11/25 00:28:38;;;;;;;2.30;0.90;;;5.90;99.90;;;;;;5118460;28;20410;-58
2022/11/25 00:31:07;;;;;;;2.27;0.90;;;5.90;99.90;;;;;;5118427;28;20423;-58
2022/11/25 00:33:34;;;;;;;2.10;0.90;;;5.80;99.90;;;;;;5118384;28;20611;-57
2022/11/25 00:36:03;;;;;;;3.40;0.90;;;5.80;99.90;;;;;;5117748;28;20416;-58
2022/11/25 00:38:29;;;;;;;2.80;0.90;;;5.70;99.90;;;;;;5118191;28;20903;-57
2022/11/25 00:46:21;;;;;;;1.83;0.95;;;5.70;99.90;;;;;;5117842;28;20850;-56
2022/11/25 00:48:48;;;;;;;2.37;0.90;;;5.70;99.90;;;;;;5118322;28;20499;-57
2022/11/25 00:51:17;;;;;;;2.90;0.80;;;5.70;99.90;;;;;;5118078;28;20815;-58
2022/11/25 00:53:44;;;;;;;1.80;0.70;;;5.80;99.90;;;;;;5118635;28;20699;-57
2022/11/25 00:56:14;;;;;;;2.60;0.70;;;5.70;99.90;;;;;;5118539;28;20424;-57
2022/11/25 00:58:41;;;;;;;2.10;0.70;;;5.70;99.90;;;;;;5118054;28;20420;-57
2022/11/25 01:01:08;;;;;;;1.20;0.63;;;5.70;99.90;;;;;;5118377;28;20511;-57
2022/11/25 01:03:36;;;;;;;2.03;0.60;;;5.70;99.90;;;;;;5118823;28;20428;-57
2022/11/25 01:06:04;;;;;;;1.45;0.60;;;5.80;99.90;;;;;;5118628;28;20442;-58
2022/11/25 01:08:34;;;;;;;1.98;0.70;;;5.80;99.90;;;;;;5118148;28;20463;-57
2022/11/25 01:11:01;;;;;;;1.70;0.70;;;5.90;99.90;;;;;;5117819;28;20420;-57
2022/11/25 01:13:29;;;;;;;1.60;0.60;;;6.00;99.90;;;;;;5118255;28;20722;-57
2022/11/25 01:15:56;;;;;;;0.90;0.60;;;6.10;99.90;;;;;;5117362;28;20507;-56
2022/11/25 01:18:22;;;;;;;1.70;0.70;;;6.10;99.90;;;;;;5117217;28;20416;-54
2022/11/25 01:20:49;;;;;;;0.90;0.60;;;6.20;99.90;;;;;;5117752;28;20460;-54
2022/11/25 01:23:16;;;;;;;1.20;0.70;;;6.20;99.90;;;;;;5118790;28;20431;-56
2022/11/25 01:25:44;;;;;;;1.20;0.60;;;6.10;99.90;;;;;;5117772;28;20515;-57
2022/11/25 01:28:12;;;;;;;0.95;0.63;;;6.00;99.90;;;;;;5117448;28;20428;-57
2022/11/25 01:30:39;;;;;;;1.73;0.70;;;6.00;99.90;;;;;;5117410;28;20416;-55
2022/11/25 01:33:06;;;;;;;1.30;0.60;;;5.90;99.90;;;;;;5116568;28;20424;-55
2022/11/25 01:35:36;;;;;;;1.60;0.70;;;6.00;99.90;;;;;;5118173;28;20468;-57
2022/11/25 01:38:03;;;;;;;2.10;0.70;;;6.00;99.90;;;;;;5117425;28;20450;-56
2022/11/25 01:40:30;;;;;;;1.15;0.60;;;6.00;99.90;;;;;;5117098;28;20495;-56
2022/11/25 01:42:58;;;;;;;1.45;0.60;;;6.00;99.90;;;;;;5117397;28;20551;-56
2022/11/25 01:45:34;;;;;;;2.20;0.70;;;6.10;99.90;;;;;;5117613;28;20894;-56
2022/11/25 01:48:06;;;;;;;2.10;0.60;;;6.20;99.90;;;;;;5117693;28;20835;-58
2022/11/25 01:50:35;;;;;;;1.10;0.70;;;6.20;99.90;;;;;;5117991;28;20796;-57
2022/11/25 01:53:05;;;;;;;1.17;0.70;;;6.20;99.90;;;;;;5117508;28;20843;-57
2022/11/25 01:55:34;;;;;;;1.52;0.70;;;6.20;99.90;;;;;;5117268;28;20446;-57
2022/11/25 01:58:06;;;;;;;1.20;0.70;;;6.20;99.90;;;;;;5117226;28;20504;-57
2022/11/25 02:00:33;;;;;;;1.27;0.70;;;6.20;99.90;;;;;;5116538;28;20857;-56
2022/11/25 02:03:00;;;;;;;1.75;0.77;;;6.30;99.90;;;;;;5116560;28;20432;-57
2022/11/25 02:05:35;;;;;;;1.80;0.60;;;6.20;99.90;;;;;;5116585;28;20570;-56
2022/11/25 02:08:03;;;;;;;2.35;0.80;;;6.20;99.90;;;;;;5117080;28;20424;-55
2022/11/25 02:10:32;;;;;;;2.30;0.80;;;6.20;99.90;;;;;;5116616;28;20799;-57
2022/11/25 02:12:59;;;;;;;1.75;0.70;;;6.20;99.90;;;;;;5116392;28;20412;-57
2022/11/25 02:15:30;;;;;;;2.08;0.70;;;6.20;99.90;;;;;;5116027;28;20503;-57
2022/11/25 02:17:57;;;;;;;2.50;0.90;;;6.30;99.90;;;;;;5116539;28;20503;-58
2022/11/25 02:20:24;;;;;;;2.20;0.70;;;6.20;99.90;;;;;;5116301;28;20506;-58
2022/11/25 02:22:59;;;;;;;2.30;0.80;;;6.20;99.90;;;;;;5116161;28;20921;-58
2022/11/25 02:25:31;;;;;;;1.67;0.75;;;6.20;99.90;;;;;;5115693;28;20499;-57
2022/11/25 02:28:01;;;;;;;1.30;0.60;;;6.10;99.90;;;;;;5115533;28;20858;-57
2022/11/25 02:30:28;;;;;;;1.70;0.70;;;6.20;99.90;;;;;;5115473;28;20495;-57
2022/11/25 02:32:55;;;;;;;2.70;0.90;;;6.10;99.90;;;;;;5116500;28;20430;-57
2022/11/25 02:35:34;;;;;;;1.92;0.80;;;5.90;99.90;;;;;;5116769;28;20420;-57
2022/11/25 02:38:05;;;;;;;1.50;1.30;;;5.80;99.90;;;;;;5116688;28;20439;-57
2022/11/25 02:40:37;;;;;;;1.90;0.70;;;5.70;99.90;;;;;;5116556;28;20495;-57
2022/11/25 02:43:04;;;;;;;2.53;1.10;;;5.70;99.90;;;;;;5115810;28;20436;-57
2022/11/25 02:45:42;;;;;;;2.53;0.77;;;5.70;99.90;;;;;;5115539;28;20424;-57
2022/11/25 02:48:09;;;;;;;1.80;0.75;;;5.80;99.90;;;;;;5116009;28;20432;-57
2022/11/25 02:50:35;;;;;;;2.00;0.80;;;5.80;99.90;;;;;;5116114;28;20796;-54
2022/11/25 02:53:02;;;;;;;1.20;0.80;;;5.90;99.90;;;;;;5116258;28;20499;-57
2022/11/25 02:55:29;;;;;;;1.40;0.80;;;5.90;99.90;;;;;;5115649;28;20870;-57
2022/11/25 02:57:57;;;;;;;2.10;0.80;;;6.00;99.90;;;;;;5115608;28;20512;-56
2022/11/25 03:00:24;;;;;;;1.10;0.80;;;5.90;99.90;;;;;;5116252;28;20420;-53
2022/11/25 03:02:53;;;;;;;2.17;0.80;;;5.90;99.90;;;;;;5116249;28;20748;-57
2022/11/25 03:05:20;;;;;;;1.20;0.70;;;5.90;99.90;;;;;;5116708;28;20424;-55
2022/11/25 03:07:47;;;;;;;1.50;0.70;;;5.90;99.90;;;;;;5116016;28;20432;-57
2022/11/25 03:10:14;;;;;;;1.67;0.80;;;6.10;99.90;;;;;;5115474;28;20416;-56
2022/11/25 03:12:41;;;;;;;1.60;0.70;;;6.10;99.90;;;;;;5115926;28;20427;-57
2022/11/25 03:15:10;;;;;;;2.80;0.77;;;6.10;99.90;;;;;;5115543;28;20450;-57
2022/11/25 03:17:37;;;;;;;1.50;0.80;;;6.20;99.90;;;;;;5115495;28;20428;-58
2022/11/25 03:20:04;;;;;;;2.78;0.90;;;6.20;99.90;;;;;;5115256;28;20764;-57
2022/11/25 03:22:31;;;;;;;2.35;0.80;;;6.10;99.90;;;;;;5115486;28;20514;-57
2022/11/25 03:24:58;;;;;;;1.20;0.60;;;6.00;99.90;;;;;;5115684;28;20436;-56
2022/11/25 03:27:25;;;;;;;2.47;0.80;;;6.00;99.90;;;;;;5115782;28;20874;-56
2022/11/25 03:29:51;;;;;;;4.20;0.70;;;6.00;99.90;;;;;;5115429;28;20823;-56
2022/11/25 03:32:20;;;;;;;1.75;0.65;;;5.90;99.90;;;;;;5115923;28;20446;-57
2022/11/25 03:34:46;;;;;;;2.50;0.87;;;5.80;99.90;;;;;;5115475;28;20419;-56
2022/11/25 03:37:13;;;;;;;1.50;0.73;;;5.70;99.90;;;;;;5115193;28;20919;-57
2022/11/25 03:39:40;;;;;;;0.95;0.60;;;5.70;99.90;;;;;;5114970;28;20438;-56
2022/11/25 03:42:07;;;;;;;2.40;0.70;;;5.80;99.90;;;;;;5114347;28;20423;-59
2022/11/25 03:44:33;;;;;;;1.40;0.65;;;5.80;99.90;;;;;;5113626;28;20432;-60
2022/11/25 03:47:00;;;;;;;1.50;0.70;;;5.90;99.90;;;;;;5113662;28;20426;-59
2022/11/25 03:49:28;;;;;;;1.40;0.70;;;6.00;99.90;;;;;;5115161;28;20416;-60
2022/11/25 03:51:55;;;;;;;2.50;0.70;;;6.00;99.90;;;;;;5115262;28;20506;-60
2022/11/25 03:54:22;;;;;;;1.30;0.70;;;6.00;99.90;;;;;;5114819;28;20412;-59
2022/11/25 03:56:49;;;;;;;1.10;0.70;;;6.10;99.90;;;;;;5115382;28;20420;-59
2022/11/25 03:59:16;;;;;;;1.45;0.75;;;6.10;99.90;;;;;;5115072;28;20422;-60
2022/11/25 04:01:43;;;;;;;1.33;0.70;;;6.00;99.90;;;;;;5115006;28;20420;-59
2022/11/25 04:04:10;;;;;;;1.27;0.70;;;6.00;99.90;;;;;;5114799;28;20432;-59
2022/11/25 04:06:39;;;;;;;1.48;0.80;;;6.00;99.90;;;;;;5113556;28;20416;-60
2022/11/25 04:09:05;;;;;;;2.38;0.70;;;6.10;99.90;;;;;;5114549;28;20433;-59
2022/11/25 04:14:13;;;;;;;1.60;0.70;;;6.10;99.90;;;;;;5114433;28;20400;-60
2022/11/25 04:16:40;;;;;;;1.20;0.60;;;6.10;99.90;;;;;;5114177;28;20435;-59
2022/11/25 04:19:07;;;;;;;1.90;0.80;;;5.90;99.90;;;;;;5111854;28;20563;-59
2022/11/25 04:21:34;;;;;;;1.10;0.70;;;5.90;99.90;;;;;;5111780;28;20422;-59
2022/11/25 04:24:02;;;;;;;2.05;0.80;;;5.80;99.90;;;;;;5112175;28;20815;-59
2022/11/25 04:26:29;;;;;;;1.40;0.73;;;5.80;99.90;;;;;;5111900;28;20497;-59
2022/11/25 04:28:58;;;;;;;2.30;0.80;;;5.70;99.90;;;;;;5112771;28;20516;-58
2022/11/25 04:31:25;;;;;;;1.67;0.80;;;5.70;99.90;;;;;;5113818;28;20412;-59
2022/11/25 04:33:52;;;;;;;1.20;0.70;;;5.80;99.90;;;;;;5115644;28;20439;-60
2022/11/25 04:36:18;;;;;;;2.20;0.80;;;5.90;99.90;;;;;;5114570;28;20454;-60
2022/11/25 04:38:45;;;;;;;1.35;0.80;;;5.90;99.90;;;;;;5114831;28;20506;-59
2022/11/25 04:41:13;;;;;;;1.60;0.80;;;5.90;99.90;;;;;;5115011;28;20434;-59
2022/11/25 04:43:40;;;;;;;1.90;0.90;;;5.90;99.90;;;;;;5114502;28;20431;-59
2022/11/25 04:46:14;;;;;;;1.17;0.80;;;5.90;99.90;;;;;;5114884;28;20750;-60
2022/11/25 04:48:41;;;;;;;1.50;0.80;;;5.90;99.90;;;;;;5115417;28;20511;-59
2022/11/25 04:51:08;;;;;;;2.40;0.90;;;5.90;99.90;;;;;;5114104;28;20424;-59
2022/11/25 04:53:34;;;;;;;1.50;0.80;;;5.80;99.90;;;;;;5116770;28;20420;-59
2022/11/25 04:56:01;;;;;;;2.17;0.80;;;5.80;99.90;;;;;;5118155;28;20426;-59
2022/11/25 05:01:14;;;;;;;1.88;0.90;;;5.70;99.90;;;;;;5115372;28;20845;-62
2022/11/25 05:03:40;;;;;;;2.50;0.80;;;5.80;99.90;;;;;;5116688;28;20428;-59
2022/11/25 05:06:08;;;;;;;2.95;0.85;;;5.80;99.90;;;;;;5117511;28;20434;-59
2022/11/25 05:08:35;;;;;;;1.40;0.80;;;5.70;99.90;;;;;;5118026;28;20851;-60
2022/11/25 05:11:02;;;;;;;2.90;0.90;;;5.60;99.90;;;;;;5117832;28;20416;-60
2022/11/25 05:13:30;;;;;;;2.03;0.90;;;5.60;99.90;;;;;;5118321;28;20896;-60
2022/11/25 05:15:59;;;;;;;1.80;0.80;;;5.60;99.90;;;;;;5118292;28;20851;-61
2022/11/25 05:18:26;;;;;;;1.30;0.90;;;5.50;99.90;;;;;;5117458;28;20424;-62
2022/11/25 05:20:53;;;;;;;2.42;0.90;;;5.40;99.90;;;;;;5117239;28;20412;-61
2022/11/25 05:23:20;;;;;;;1.60;1.00;;;5.30;99.90;;;;;;5117463;28;20420;-62
2022/11/25 05:25:46;;;;;;;2.38;1.10;;;5.20;99.90;;;;;;5117513;28;20416;-61
2022/11/25 05:28:13;;;;;;;2.08;1.00;;;5.10;99.90;;;;;;5117722;28;20430;-62
2022/11/25 05:30:44;;;;;;;2.53;1.00;;;5.00;99.90;;;;;;5117930;28;20420;-62
2022/11/25 05:33:10;;;;;;;2.25;1.00;;;5.00;99.90;;;;;;5117397;28;20471;-62
2022/11/25 05:35:37;;;;;;;1.92;1.20;;;5.00;99.90;;;;;;5117213;28;20404;-61
2022/11/25 05:38:04;;;;;;;2.35;1.00;;;5.10;99.90;;;;;;5117294;28;20446;-62
2022/11/25 05:40:31;;;;;;;2.80;1.00;;;5.20;99.90;;;;;;5117298;28;20416;-62
2022/11/25 05:43:01;;;;;;;1.80;1.00;;;5.30;99.90;;;;;;5117842;28;20425;-61
2022/11/25 05:45:28;;;;;;;3.03;1.10;;;5.30;99.90;;;;;;5117282;28;20855;-61
2022/11/25 05:47:56;;;;;;;3.22;1.02;;;5.30;99.90;;;;;;5117158;28;20467;-62
2022/11/25 05:50:23;;;;;;;2.00;1.08;;;5.30;99.90;;;;;;5117477;28;20969;-62
2022/11/25 05:52:50;;;;;;;4.20;1.10;;;5.30;99.90;;;;;;5117276;28;20431;-61
2022/11/25 05:55:17;;;;;;;1.80;1.00;;;5.20;99.90;;;;;;5116455;28;20413;-61
2022/11/25 05:57:44;;;;;;;4.55;1.20;;;5.10;99.90;;;;;;5116083;28;20424;-61
2022/11/25 06:00:12;;;;;;;2.10;1.00;;;5.00;99.90;;;;;;5116839;28;20412;-61
2022/11/25 06:02:38;;;;;;;3.20;1.10;;;4.90;99.90;;;;;;5116914;28;20924;-61
2022/11/25 06:05:07;;;;;;;3.10;1.40;;;4.80;99.90;;;;;;5116043;28;20514;-62
2022/11/25 06:07:34;;;;;;;3.20;1.10;;;4.70;99.90;;;;;;5116797;28;20518;-61
2022/11/25 06:10:01;;;;;;;4.88;1.10;;;4.60;99.90;;;;;;5116965;28;20783;-61
2022/11/25 06:12:28;;;;;;;1.92;1.20;;;4.40;99.90;;;;;;5116578;28;20424;-61
2022/11/25 06:14:55;;;;;;;3.50;1.00;;;4.40;99.90;;;;;;5116691;28;20404;-62
2022/11/25 06:17:21;;;;;;;1.30;0.98;;;4.50;99.90;;;;;;5115743;28;20704;-61
2022/11/25 06:19:48;;;;;;;2.37;1.00;;;4.50;99.90;;;;;;5116401;28;20541;-62
2022/11/25 06:22:16;;;;;;;2.20;1.00;;;4.60;99.90;;;;;;5116801;28;20431;-60
2022/11/25 06:24:43;;;;;;;2.80;0.90;;;4.60;99.90;;;;;;5116186;28;20439;-61
2022/11/25 06:27:10;;;;;;;2.43;1.10;;;4.60;99.90;;;;;;5116434;28;20764;-62
2022/11/25 06:29:37;;;;;;;2.45;1.00;;;4.70;99.90;;;;;;5115777;28;20427;-61
2022/11/25 06:32:04;;;;;;;1.30;0.90;;;4.80;99.90;;;;;;5115907;28;20963;-61
2022/11/25 06:34:31;;;;;;;2.40;1.00;;;4.80;99.90;;;;;;5116494;28;20505;-61
2022/11/25 06:36:58;;;;;;;2.13;0.80;;;4.90;99.90;;;;;;5116084;28;20423;-61
2022/11/25 06:39:26;;;;;;;2.53;0.83;;;4.90;99.90;;;;;;5112967;28;20770;-62
2022/11/25 06:41:53;;;;;;;3.03;1.10;;;5.00;99.90;;;;;;5100680;28;20428;-61
2022/11/25 06:44:19;;;;;;;4.20;1.10;;;5.10;99.90;;;;;;5113073;28;20428;-61
2022/11/25 06:46:46;;;;;;;2.85;1.48;;;5.10;99.90;;;;;;5105909;28;20416;-61
2022/11/25 06:49:13;;;;;;;5.90;1.77;;;5.10;99.90;;;;;;5115024;28;20939;-61
2022/11/25 06:51:40;;;;;;;4.00;1.60;;;5.20;99.90;;;;;;5112375;28;20418;-61
2022/11/25 06:54:09;;;;;;;5.32;1.95;;;5.00;99.90;;;;;;5095498;28;20741;-61
2022/11/25 06:56:39;;;;;;;2.50;1.25;;;4.90;99.90;;;;;;5101276;28;20428;-61
2022/11/25 06:59:06;;;;;;;1.55;0.88;;;5.00;99.90;;;;;;5112079;28;20432;-61
2022/11/25 07:01:33;;;;;;;1.90;0.90;;;5.10;99.90;;;;;;5099246;28;20422;-61
2022/11/25 07:04:02;;;;;;;1.60;1.00;;;5.20;99.90;;;;;;5101151;28;20425;-62
2022/11/25 07:06:30;;;;;;;3.28;1.00;;;5.30;99.90;;;;;;5101087;28;20412;-61
2022/11/25 07:08:58;;;;;;;1.20;0.80;;;5.40;99.90;;;;;;5092999;28;20433;-61
2022/11/25 07:11:27;;;;;;;1.70;0.80;;;5.50;99.90;;;;;;5109000;28;20419;-61
2022/11/25 07:13:57;;;;;;;2.20;0.90;;;5.60;99.90;;;;;;5099745;28;20863;-61
2022/11/25 07:16:25;;;;;;;1.25;0.70;;;5.70;99.90;;;;;;5093963;28;20776;-62
2022/11/25 07:18:52;;;;;;;1.70;0.80;;;5.60;99.90;;;;;;5103127;28;20451;-62
2022/11/25 07:21:21;;;;;;;2.05;0.80;;;5.60;99.90;;;;;;5108646;28;20420;-61
2022/11/25 07:23:49;;;;;;;1.30;0.80;;;5.60;99.90;;;;;;5111180;28;20843;-61
2022/11/25 07:26:18;;;;;;;1.92;0.80;;;5.60;99.90;;;;;;5099631;28;20414;-61
2022/11/25 07:28:45;;;;;;;1.90;0.80;;;5.60;99.90;;;;;;5103011;28;20508;-62
2022/11/25 07:31:16;;;;;;;1.90;0.90;;;5.60;99.90;;;;;;5108198;28;20930;-61
2022/11/25 07:33:43;;;;;;;1.27;0.80;;;5.60;99.90;;;;;;5097313;28;20429;-52
2022/11/25 07:36:12;;;;;;;1.30;0.80;;;5.60;99.90;;;;;;5106679;28;20424;-51
2022/11/25 07:38:39;;;;;;;1.33;0.80;;;5.70;99.90;;;;;;5102145;28;20428;-50
2022/11/25 07:41:07;;;;;;;2.20;0.80;;;5.90;99.90;;;;;;5099591;28;20500;-49
2022/11/25 07:43:35;;;;;;;1.88;0.98;;;6.00;99.90;;;;;;5109272;28;20428;-50
2022/11/25 07:46:10;;;;;;;1.30;0.80;;;6.10;99.90;;;;;;5096070;28;20438;-47
2022/11/25 07:48:38;;;;;;;1.20;0.73;;;6.10;99.90;;;;;;5104248;28;20426;-49
2022/11/25 07:51:06;;;;;;;2.90;0.80;;;6.10;99.90;;;;;;5109000;28;20415;-49
2022/11/25 07:53:33;;;;;;;1.48;0.80;;;6.10;99.90;;;;;;5096511;28;20845;-47
2022/11/25 07:56:02;;;;;;;1.90;0.70;;;6.20;99.90;;;;;;5109378;28;20494;-52
2022/11/25 07:58:28;;;;;;;1.80;0.90;;;6.20;99.90;;;;;;5101594;28;20424;-50
2022/11/25 08:00:55;;;;;;;2.20;0.80;;;6.20;99.90;;;;;;5100254;28;20497;-52
2022/11/25 08:03:22;;;;;;;1.65;0.80;;;6.10;99.90;;;;;;5108816;28;20433;-53
2022/11/25 08:05:50;;;;;;;2.00;1.00;;;6.10;99.90;;;;;;5096007;28;20439;-48
2022/11/25 08:08:17;;;;;;;1.55;0.80;;;6.20;99.90;;;;;;5107347;28;20943;-48
2022/11/25 08:10:44;;;;;;;2.40;0.80;;;6.20;99.90;;;;;;5100890;28;20428;-52
2022/11/25 08:13:11;;;;;;;2.60;0.70;;;6.20;99.90;;;;;;5102252;28;20431;-47
2022/11/25 08:15:37;;;;;;;1.90;0.80;;;6.30;99.90;;;;;;5106387;28;20414;-50
2022/11/25 08:18:04;;;;;;;1.40;0.70;;;6.40;99.90;;;;;;5098432;28;20741;-48
2022/11/25 08:20:31;;;;;;;2.70;0.60;;;6.50;99.90;;;;;;5093640;28;20491;-49
2022/11/25 08:22:59;;;;;;;0.80;0.70;;;6.60;99.90;;;;;;5093838;28;20543;-51
2022/11/25 08:25:28;;;;;;;0.98;0.60;;;6.70;99.90;;;;;;5093302;28;20426;-52
2022/11/25 08:27:55;;;;;;;2.00;0.70;;;6.70;99.90;;;;;;5094070;28;20530;-49
2022/11/25 08:30:24;;;;;;;1.50;0.80;;;6.80;99.90;;;;;;5097031;28;20504;-53
2022/11/25 08:32:52;;;;;;;3.10;0.90;;;6.90;99.90;;;;;;5096785;28;20432;-52
2022/11/25 08:35:19;;;;;;;1.90;0.80;;;7.00;99.90;;;;;;5097318;28;20732;-49
2022/11/25 08:37:45;;;;;;;3.78;0.70;;;7.10;99.90;;;;;;5097037;28;20425;-53
2022/11/25 08:40:14;;;;;;;2.20;0.80;;;7.20;99.90;;;;;;5096606;28;20418;-51
2022/11/25 08:42:41;;;;;;;1.80;0.70;;;7.30;99.90;;;;;;5095591;28;20861;-53
2022/11/25 08:45:09;;;;;;;1.10;0.70;;;7.30;99.90;;;;;;5103665;28;20724;-53
2022/11/25 08:47:37;;;;;;;1.10;0.70;;;7.30;99.90;;;;;;5116635;28;20431;-49
2022/11/25 08:50:07;;;;;;;1.60;0.50;;;7.30;99.90;;;;;;5116872;28;20745;-49
2022/11/25 08:52:34;;;;;;;1.20;0.60;;;7.40;99.90;;;;;;5104901;28;20844;-47
2022/11/25 08:55:01;;;;;;;1.20;0.60;;;7.40;99.90;;;;;;5106413;28;20735;-50
2022/11/25 08:57:29;;;;;;;1.40;0.70;;;7.40;99.90;;;;;;5096108;28;20440;-52
2022/11/25 08:59:56;;;;;;;2.10;0.60;;;7.30;99.90;;;;;;5094740;28;20459;-50
2022/11/25 09:02:23;;;;;;;1.45;0.60;;;7.30;99.90;;;;;;5097442;28;20697;-48
2022/11/25 09:04:50;;;;;;;0.93;0.60;;;7.40;99.90;;;;;;5114850;28;20509;-51
2022/11/25 09:07:17;;;;;;;1.70;0.70;;;7.50;99.90;;;;;;5104605;28;20436;-54
2022/11/25 09:09:44;;;;;;;2.80;0.70;;;7.60;99.90;;;;;;5096561;28;20414;-54
2022/11/25 09:12:11;;;;;;;2.55;0.80;;;7.70;99.90;;;;;;5094831;28;20433;-50
2022/11/25 09:14:40;;;;;;;1.20;0.70;;;7.80;99.90;;;;;;5094861;28;20432;-52
2022/11/25 09:17:09;;;;;;;1.70;0.60;;;7.90;99.90;;;;;;5094704;28;21305;-52
2022/11/25 09:19:36;;;;;;;0.90;0.60;;;8.00;99.90;;;;;;5114076;28;20454;-49
2022/11/25 09:22:03;;;;;;;1.58;0.60;;;8.20;99.90;;;;;;5115103;28;20499;-53
2022/11/25 09:24:30;;;;;;;0.87;0.60;;;8.40;98.40;;;;;;5116591;28;20506;-53
2022/11/25 09:26:56;;;;;;;1.75;0.70;;;8.50;71.50;;;;;;5116546;28;20846;-52
2022/11/25 09:29:24;;;;;;;2.30;0.50;;;8.60;72.00;;;;;;5116325;28;20497;-52
2022/11/25 09:31:52;;;;;;;0.90;0.50;;;8.60;48.40;;;;;;5114511;28;20473;-54
2022/11/25 09:34:18;;;;;;;0.90;0.60;;;8.70;56.70;;;;;;5115834;28;20416;-53
2022/11/25 09:36:45;;;;;;;1.30;0.50;;;8.80;70.70;;;;;;5115296;28;20409;-50
2022/11/25 09:39:12;;;;;;;1.33;0.50;;;8.80;36.50;;;;;;5110834;28;20438;-55
2022/11/25 09:47:42;;;;;;;0.80;0.50;;;9.00;25.30;;;;;;5115951;28;20408;-53
2022/11/25 09:50:20;;;;;;;1.50;0.50;;;9.00;16.50;;;;;;5113510;28;20865;-54
2022/11/25 09:52:55;;;;;;;3.35;1.00;;;9.10;43.00;;;;;;5115795;28;20424;-52
2022/11/25 09:55:23;;;;;;;1.10;0.60;;;9.10;37.50;;;;;;5114251;28;20773;-52
2022/11/25 09:58:01;;;;;;;0.90;0.50;;;9.20;40.10;;;;;;5114768;28;20428;-53
2022/11/25 10:00:36;;;;;;;1.30;0.60;;;9.30;27.60;;;;;;5114662;28;20511;-53
2022/11/25 10:03:11;;;;;;;2.30;0.70;;;9.40;22.70;;;;;;5114647;28;20481;-53
2022/11/25 10:05:41;;;;;;;1.10;0.60;;;9.40;40.10;;;;;;5115242;28;20432;-52
2022/11/25 10:08:12;;;;;;;1.13;0.52;;;9.40;31.30;;;;;;5113982;28;20434;-55
2022/11/25 10:10:44;;;;;;;1.00;0.50;;;9.30;35.40;;;;;;5113488;28;20455;-50
2022/11/25 10:13:18;;;;;;;2.50;0.60;;;9.20;23.70;;;;;;5113716;28;20424;-53
2022/11/25 10:15:49;;;;;;;1.30;0.50;;;9.30;20.90;;;;;;5114723;28;20503;-51
2022/11/25 10:18:24;;;;;;;1.30;0.50;;;9.40;28.90;;;;;;5114253;28;20459;-50
2022/11/25 10:20:52;;;;;;;0.93;0.55;;;9.50;30.80;;;;;;5114704;28;20426;-54
2022/11/25 10:23:22;;;;;;;0.93;0.50;;;9.50;21.10;;;;;;5114395;28;20519;-54
2022/11/25 10:25:53;;;;;;;2.30;0.60;;;9.60;10.30;;;;;;5113847;28;20708;-54
2022/11/25 10:28:22;;;;;;;1.35;0.60;;;9.60;6.70;;;;;;5114201;28;20847;-49
2022/11/25 10:30:54;;;;;;;1.60;0.60;;;9.70;16.90;;;;;;5114637;28;20412;-53
2022/11/25 10:33:27;;;;;;;1.55;0.60;;;9.80;1.00;;;;;;5114765;28;20446;-55
2022/11/25 10:35:57;;;;;;;2.03;0.50;;;10.00;1.00;;;;;;5097324;28;20425;-50
2022/11/25 10:38:41;;;;;;;1.48;0.50;;;10.00;1.00;;;;;;5094624;28;20714;-50
2022/11/25 10:41:15;;;;;;;1.73;0.60;;;10.10;1.00;;;;;;5093972;28;20514;-50
2022/11/25 10:43:43;;;;;;;1.10;0.50;;;10.20;1.00;;;;;;5094450;28;20474;-49
2022/11/25 10:46:22;;;;;;;0.98;0.52;;;10.30;1.00;;;;;;5108955;28;20843;-53
2022/11/25 10:48:59;;;;;;;1.30;0.50;;;10.30;1.00;;;;;;5114807;28;20734;-53
2022/11/25 10:51:36;;;;;;;1.20;0.60;;;10.30;1.00;;;;;;5109002;28;20458;-53
2022/11/25 10:54:16;;;;;;;1.38;0.60;;;10.30;1.00;;;;;;5115047;28;20424;-62
2022/11/25 10:56:44;;;;;;;1.20;0.60;;;10.40;1.00;;;;;;5114559;28;20412;-59
2022/11/25 10:59:21;;;;;;;1.30;0.50;;;10.50;1.00;;;;;;5113869;28;20420;-60
2022/11/25 11:01:48;;;;;;;1.00;0.50;;;10.50;1.00;;;;;;5113942;28;20427;-58
2022/11/25 11:04:17;;;;;;;0.80;0.50;;;10.60;1.00;;;;;;5113616;28;20427;-58
2022/11/25 11:06:46;;;;;;;2.03;1.10;;;10.60;1.00;;;;;;5114024;28;20477;-60
2022/11/25 11:09:35;;;;;;;2.40;0.50;;;10.60;1.00;;;;;;5112744;28;20719;-58
2022/11/25 11:12:19;;;;;;;1.60;0.60;;;10.60;1.00;;;;;;5113272;28;20426;-58
2022/11/25 11:14:46;;;;;;;1.33;0.50;;;10.60;1.00;;;;;;5111740;28;20419;-59
2022/11/25 11:17:30;;;;;;;2.22;0.50;;;10.70;1.00;;;;;;5113680;28;20804;-59
2022/11/25 11:20:12;;;;;;;1.10;0.50;;;10.60;1.00;;;;;;5111763;28;20850;-58
2022/11/25 11:22:48;;;;;;;1.30;0.50;;;10.70;1.00;;;;;;5107148;28;20425;-58
2022/11/25 11:25:33;;;;;;;1.00;0.50;;;10.70;1.00;;;;;;5105491;28;20607;-58
2022/11/25 11:28:00;;;;;;;1.90;0.50;;;10.60;1.00;;;;;;5111424;28;20522;-60
2022/11/25 11:30:29;;;;;;;1.50;0.50;;;10.60;1.00;;;;;;5097545;28;20422;-58
2022/11/25 11:33:00;;;;;;;1.35;0.40;;;10.50;1.00;;;;;;5089268;28;20436;-60
2022/11/25 11:35:41;;;;;;;0.70;0.30;;;10.60;1.00;;;;;;5100761;28;20436;-59
2022/11/25 11:38:20;;;;;;;0.85;0.50;;;10.60;1.00;;;;;;5109228;28;20734;-61
2022/11/25 11:40:52;;;;;;;2.30;0.50;;;10.50;1.00;;;;;;5109875;28;20956;-59
2022/11/25 11:43:43;;;;;;;1.17;0.40;;;10.60;1.00;;;;;;5112556;28;20994;-59
2022/11/25 11:46:23;;;;;;;1.67;0.40;;;10.60;1.00;;;;;;5112538;28;20762;-60
2022/11/25 11:49:02;;;;;;;0.98;0.50;;;10.50;1.00;;;;;;5107808;28;20433;-59
2022/11/25 11:51:39;;;;;;;2.00;0.50;;;10.50;1.00;;;;;;5111137;28;20422;-60
2022/11/25 11:54:12;;;;;;;1.80;0.50;;;10.40;16.10;;;;;;5098115;28;20430;-60
2022/11/25 11:56:41;;;;;;;1.27;0.47;;;10.30;27.70;;;;;;5091672;28;20843;-59
2022/11/25 11:59:23;;;;;;;1.52;0.40;;;10.30;47.30;;;;;;5091188;28;20756;-60
2022/11/25 12:02:05;;;;;;;1.83;0.50;;;10.30;44.70;;;;;;5110911;28;20416;-59
2022/11/25 12:04:39;;;;;;;2.92;0.50;;;10.10;62.50;;;;;;5113674;28;20422;-60
2022/11/25 12:07:13;;;;;;;1.95;0.50;;;10.00;94.10;;;;;;5115717;28;20428;-59
2022/11/25 12:09:48;;;;;;;0.93;0.50;;;10.00;99.10;;;;;;5116456;28;20426;-60
2022/11/25 12:12:19;;;;;;;3.10;0.70;;;9.90;99.90;;;;;;5110788;28;20438;-57
2022/11/25 12:14:49;;;;;;;2.28;0.50;;;10.00;99.90;;;;;;5096029;28;20723;-59
2022/11/25 12:17:21;;;;;;;0.80;0.40;;;10.10;99.90;;;;;;5096483;28;20891;-59
2022/11/25 12:19:59;;;;;;;1.47;0.50;;;10.10;99.90;;;;;;5106184;28;20523;-60
2022/11/25 12:22:32;;;;;;;1.65;0.60;;;10.00;99.90;;;;;;5108040;28;20880;-60
2022/11/25 12:25:07;;;;;;;1.27;0.60;;;9.80;99.90;;;;;;5103247;28;20847;-59
2022/11/25 12:27:38;;;;;;;1.77;0.90;;;9.70;99.90;;;;;;5111206;28;20511;-59
2022/11/25 12:30:08;;;;;;;2.30;0.70;;;9.60;99.90;;;;;;5116024;28;20473;-59
2022/11/25 12:33:02;;;;;;;1.80;0.70;;;9.60;99.90;;;;;;5116070;28;20939;-58
2022/11/25 12:35:41;;;;;;;1.30;0.55;;;9.70;99.90;;;;;;5094510;28;20414;-58
2022/11/25 12:38:23;;;;;;;2.95;0.80;;;9.60;99.90;;;;;;5095119;28;20457;-57
2022/11/25 12:40:59;;;;;;;2.10;0.70;;;9.70;99.90;;;;;;5094538;28;20440;-58
2022/11/25 12:43:33;;;;;;;2.60;0.70;;;9.80;99.90;;;;;;5091820;28;20524;-58
2022/11/25 12:46:07;;;;;;;2.03;0.70;;;9.70;99.90;;;;;;5090728;28;20426;-57
2022/11/25 12:48:42;;;;;;;1.60;0.50;;;9.70;99.90;;;;;;5089532;28;20744;-57
2022/11/25 12:51:24;;;;;;;1.90;0.50;;;9.70;99.90;;;;;;5089612;28;20436;-57
2022/11/25 12:54:03;;;;;;;1.60;0.60;;;9.70;99.90;;;;;;5101634;28;20435;-57
2022/11/25 12:56:45;;;;;;;2.20;0.60;;;9.70;99.90;;;;;;5091612;28;20496;-58
2022/11/25 12:59:35;;;;;;;1.10;0.60;;;9.70;99.90;;;;;;5091554;28;20418;-58
2022/11/25 13:02:34;;;;;;;1.90;0.70;;;9.60;99.90;;;;;;5097826;28;20505;-58
2022/11/25 13:05:35;;;;;;;1.10;0.60;;;9.70;99.90;;;;;;5095424;28;20434;-58
2022/11/25 13:08:15;;;;;;;1.58;0.60;;;9.80;99.90;;;;;;5111898;28;20427;-58
2022/11/25 13:10:58;;;;;;;1.70;0.60;;;9.90;99.90;;;;;;5111608;28;20514;-57
2022/11/25 13:13:38;;;;;;;1.65;0.60;;;9.80;99.90;;;;;;5110067;28;20439;-58
2022/11/25 13:16:07;;;;;;;1.95;0.70;;;9.80;99.90;;;;;;5113422;28;20731;-58
2022/11/25 13:18:39;;;;;;;2.00;0.70;;;9.80;99.90;;;;;;5111901;28;20424;-58
2022/11/25 13:21:09;;;;;;;1.75;0.60;;;9.80;99.90;;;;;;5111521;28;20495;-59
2022/11/25 13:23:48;;;;;;;3.90;0.70;;;9.80;99.90;;;;;;5110015;28;20554;-59
2022/11/25 13:26:46;;;;;;;5.82;1.92;;;9.80;99.90;;;;;;5109440;28;20831;-57
2022/11/25 13:30:00;;;;;;;1.90;0.70;;;9.80;99.90;;;;;;5111698;28;20792;-58